KMAF/MAF METAR and TAF weather

Enter ICAO airport designator
Station Type Date Time Source
KMAF METAR 2019/02/21 11:53 UTC NOAA

KMAF 211153Z 16010KT 10SM CLR 08/M03 A2981 RMK AO2 SLP075 T00781028 10089 20061 55007


Station Type Date Time Source
KMAF Decoded METAR 2019/02/21 11:53 UTC NOAA

MIDLAND INTERNATIONAL AIRPORT , TX, United States (KMAF) 31-56N 102-12W 872M
Feb 21, 2019 - 06:53 AM EST / 2019.02.21 1153 UTC
Wind: from the SSE (160 degrees) at 12 MPH (10 KT):0
Visibility: 10 mile(s):0
Sky conditions: clear
Temperature: 46.0 F (7.8 C)
Dew Point: 27.0 F (-2.8 C)
Relative Humidity: 47%
Pressure (altimeter): 29.81 in. Hg (1009 hPa)
Pressure tendency: 0.02 inches (0.7 hPa) lower than three hours ago
ob: KMAF 211153Z 16010KT 10SM CLR 08/M03 A2981 RMK AO2 SLP075 T00781028 10089 20061 55007
cycle: 12

Station Type Date Time Source
KMAF TAF 2019/02/21 12:27 UTC NOAA

TAF KMAF 211123Z 2112/2212 16008KT P6SM BKN150
FM211600 16014G22KT P6SM SKC
FM220100 13011KT P6SM BKN050


Example: see airport list